KLAR/LAR METAR and TAF weather

Enter ICAO airport designator
Station Type Date Time Source
KLAR METAR 2019/08/22 06:53 UTC NOAA

KLAR 220653Z AUTO 13007KT 10SM FEW039 14/10 A3026 RMK AO2 SLP132 T01390100 402670100


Station Type Date Time Source
KLAR Decoded METAR 2019/08/22 06:53 UTC NOAA

Station name not available
Aug 22, 2019 - 02:53 AM EDT / 2019.08.22 0653 UTC
Wind: from the SE (130 degrees) at 8 MPH (7 KT):0
Visibility: 10 mile(s):0
Sky conditions: mostly clear
Temperature: 57.0 F (13.9 C)
Dew Point: 50.0 F (10.0 C)
Relative Humidity: 77%
Pressure (altimeter): 30.26 in. Hg (1024 hPa)
ob: KLAR 220653Z AUTO 13007KT 10SM FEW039 14/10 A3026 RMK AO2 SLP132 T01390100 402670100
cycle: 7

Station Type Date Time Source
KLAR TAF 2019/08/22 06:58 UTC NOAA

TAF COR KLAR 220558Z 2206/2306 09013KT P6SM SCT022 BKN035
FM221200 18010KT P6SM SCT250
FM221700 19013G24KT P6SM SCT120
FM230100 17012KT P6SM SCT100 BKN250

Example: see airport list